Flight Track Log - Related Links

Times and Time Zones

All times are in EDT time to prevent confusion due to time zone crossing. See the RPA3260 flight status page for this flight to view local times or setup timezone preferences in your user account.

Time Position Orientation Groundspeed Altitude Reporting Facility
EDT Latitude Longitude Course Direction KTS MPH feet Rate Location/Type
08:30AM 29.9956 -90.2772 52° Northeast 157 181 700  Level Houston Center
08:31AM 30.0050 -90.3153 286° West 153 176 2,200 2,000 Climbing Houston Center
08:31AM 30.0100 -90.3308 290° West 186 214 2,900 2,852 Climbing Houston Center
08:32AM 30.0361 -90.3717 306° West 255 293 5,100 2,656 Climbing Houston Center
08:32AM 30.0544 -90.3694 North 232 267 5,600 2,886 Climbing Houston Center
08:33AM 30.1047 -90.3014 49° Northeast 278 320 8,900 2,661 Climbing Houston Center
08:34AM 30.2583 -89.8709 52° Northeast  Level FlightAware Approximate
08:34AM 30.1533 -90.2183 56° Northeast 308 354 11,100  Level Houston Center
08:35AM 30.3255 -89.7702 52° Northeast  Level FlightAware Approximate
08:35AM 30.2117 -90.1250 54° Northeast 353 406 13,700  Level Houston Center
08:36AM 30.2706 -90.0269 55° Northeast 368 423 14,900 585 Climbing Houston Center
08:37AM 30.3492 -89.8992 54° Northeast 401 461 14,900 871 Level Houston Center
08:38AM 30.4050 -89.8131 53° Northeast 401 461 16,700 2,293 Climbing Houston Center
08:39AM 30.4731 -89.7050 54° Northeast 402 463 19,600 2,780 Climbing Houston Center
08:40AM 30.5458 -89.5747 57° Northeast 400 460 22,400 2,274 Climbing Houston Center
08:41AM 30.6083 -89.4603 58° Northeast 414 476 24,300 1,887 Climbing Houston Center
08:42AM 30.6697 -89.3433 59° Northeast 420 483 26,300 1,694 Climbing Houston Center
08:43AM 30.7328 -89.2239 58° Northeast 431 496 27,800 1,561 Climbing Houston Center
08:44AM 30.7972 -89.1014 58° Northeast 441 507 29,500 1,659 Climbing Houston Center
08:45AM 30.8611 -88.9808 58° Northeast 441 507 31,200 1,500 Climbing Houston Center
08:46AM 30.9278 -88.8544 58° Northeast 440 506 32,600 871 Climbing Houston Center
08:47AM 30.9919 -88.7331 58° Northeast 440 506 33,000 194 Climbing Houston Center
08:49AM 31.0639 -88.5942 59° Northeast 438 504 33,000  Level Houston Center
08:50AM 31.1275 -88.4753 58° Northeast 435 501 33,000  Level Houston Center
08:51AM 31.1894 -88.3553 59° Northeast 434 499 33,000  Level Houston Center
08:52AM 31.2589 -88.2225 59° Northeast 434 499 33,000  Level Houston Center
08:53AM 31.3228 -88.0997 59° Northeast 434 499 33,000  Level Houston Center
08:54AM 31.3850 -87.9781 59° Northeast 435 501 33,000  Level Houston Center
08:55AM 31.4481 -87.8558 59° Northeast 435 501 33,000  Level Houston Center
08:56AM 31.5100 -87.7328 59° Northeast 436 502 33,000  Level Houston Center
08:57AM 31.5731 -87.6119 58° Northeast 436 502 33,000  Level Houston Center
08:57AM 31.6267 -87.5167 57° Northeast 437 503 33,000  Level Atlanta Center
08:58AM 31.6906 -87.3947 58° Northeast 437 503 33,000  Level Atlanta Center
08:59AM 31.7417 -87.2842 61° Northeast 437 503 33,000  Level Atlanta Center
09:00AM 31.8133 -87.1672 54° Northeast 432 497 33,000  Level Atlanta Center
09:01AM 31.8853 -87.0547 53° Northeast 432 497 33,000  Level Atlanta Center
09:02AM 31.9608 -86.9422 52° Northeast 432 497 33,000  Level Atlanta Center
09:03AM 32.0344 -86.8269 53° Northeast 432 497 33,000  Level Atlanta Center
09:04AM 32.1228 -86.7047 50° Northeast 432 497 33,000  Level Atlanta Center
09:05AM 32.1983 -86.5914 52° Northeast 438 504 33,000  Level Atlanta Center
09:06AM 32.2736 -86.4758 52° Northeast 438 504 33,000  Level Atlanta Center
09:07AM 32.3447 -86.3572 55° Northeast 438 504 33,000  Level Atlanta Center
09:08AM 32.4136 -86.2433 54° Northeast 438 504 33,000  Level Atlanta Center
09:09AM 32.4931 -86.1247 52° Northeast 438 504 33,000  Level Atlanta Center
09:10AM 32.5678 -86.0081 53° Northeast 450 518 33,000  Level Atlanta Center
09:11AM 32.6428 -85.8889 53° Northeast 450 518 33,000  Level Atlanta Center
09:12AM 32.7156 -85.7719 53° Northeast 450 518 33,000  Level Atlanta Center
09:13AM 32.7900 -85.6547 53° Northeast 445 512 33,000  Level Atlanta Center
09:14AM 32.8625 -85.5400 53° Northeast 445 512 33,000  Level Atlanta Center
09:15AM 32.9369 -85.4200 54° Northeast 445 512 33,000  Level Atlanta Center
09:16AM 33.0114 -85.3047 52° Northeast 445 512 33,000  Level Atlanta Center
09:17AM 33.0833 -85.1842 55° Northeast 440 506 33,000  Level Atlanta Center
09:18AM 33.1575 -85.0661 53° Northeast 440 506 33,000  Level Atlanta Center
09:19AM 33.2317 -84.9453 54° Northeast 445 512 33,000  Level Atlanta Center
09:20AM 33.3033 -84.8292 54° Northeast 445 512 33,000  Level Atlanta Center
09:21AM 33.3750 -84.7228 51° Northeast 436 502 33,000  Level Atlanta Center
09:22AM 33.4486 -84.6039 53° Northeast 441 507 33,000  Level Atlanta Center
09:23AM 33.5306 -84.4675 54° Northeast 446 513 33,000  Level Atlanta Center
09:24AM 33.6019 -84.3481 54° Northeast 446 513 33,000  Level Atlanta Center
09:25AM 33.6772 -84.2261 53° Northeast 446 513 33,000  Level Atlanta Center
09:26AM 33.7503 -84.1039 54° Northeast 454 522 33,000  Level Atlanta Center
09:27AM 33.8297 -83.9789 53° Northeast 454 522 33,000  Level Atlanta Center
09:28AM 33.8983 -83.8561 56° Northeast 454 522 33,000  Level Atlanta Center
09:29AM 33.9733 -83.7333 54° Northeast 454 522 33,000  Level Atlanta Center
09:30AM 34.0503 -83.6075 54° Northeast 454 522 33,000  Level Atlanta Center
09:31AM 34.1247 -83.4842 54° Northeast 459 528 33,000  Level Atlanta Center
09:32AM 34.1994 -83.3581 54° Northeast 459 528 33,000  Level Atlanta Center
09:33AM 34.2736 -83.2319 55° Northeast 454 522 33,000  Level Atlanta Center
09:34AM 34.3481 -83.1053 55° Northeast 459 528 33,000  Level Atlanta Center
09:35AM 34.4219 -82.9811 54° Northeast 459 528 33,000  Level Atlanta Center
09:36AM 34.4961 -82.8567 54° Northeast 454 522 33,000  Level Atlanta Center
09:37AM 34.5636 -82.7297 57° Northeast 454 522 33,000  Level Atlanta Center
09:38AM 34.6353 -82.6022 56° Northeast 454 522 33,000  Level Atlanta Center
09:39AM 34.7047 -82.4772 56° Northeast 447 514 33,000  Level Atlanta Center
09:40AM 34.7742 -82.3547 55° Northeast 442 509 33,000  Level Atlanta Center
09:41AM 34.8431 -82.2292 56° Northeast 447 514 33,000  Level Atlanta Center
09:42AM 34.9122 -82.1036 56° Northeast 447 514 33,000  Level Atlanta Center
09:43AM 34.9750 -81.9931 55° Northeast 447 514 33,000  Level Atlanta Center
09:44AM 35.0458 -81.8644 56° Northeast 447 514 33,000  Level Atlanta Center
09:45AM 35.1147 -81.7383 56° Northeast 447 514 33,000  Level Atlanta Center
09:46AM 35.1811 -81.6119 57° Northeast 447 514 33,000  Level Atlanta Center
09:47AM 35.2494 -81.4878 56° Northeast 447 514 33,000  Level Atlanta Center
09:48AM 35.3175 -81.3558 58° Northeast 447 514 33,000  Level Atlanta Center
09:49AM 35.3836 -81.2317 57° Northeast 447 514 33,000  Level Atlanta Center
09:50AM 35.4517 -81.1017 57° Northeast 447 514 33,000  Level Atlanta Center
09:51AM 35.5194 -80.9742 57° Northeast 447 514 33,000  Level Atlanta Center
09:52AM 35.5872 -80.8492 56° Northeast 442 509 33,000  Level Atlanta Center
09:53AM 35.6528 -80.7267 57° Northeast 442 509 33,000  Level Atlanta Center
09:54AM 35.7281 -80.5853 57° Northeast 447 514 33,000  Level Atlanta Center
09:57AM 35.8878 -80.2811 57° Northeast 438 504 33,000  Level Washington Center
09:58AM 35.9533 -80.1544 57° Northeast 438 504 33,000  Level Washington Center
09:59AM 36.0147 -80.0344 58° Northeast 438 504 33,000  Level Washington Center
10:00AM 36.0956 -79.8886 56° Northeast 434 499 33,000  Level Washington Center
10:01AM 36.1647 -79.7681 55° Northeast 429 494 33,000  Level Washington Center
10:02AM 36.2325 -79.6478 55° Northeast 429 494 33,000  Level Washington Center
10:03AM 36.2997 -79.5283 55° Northeast 423 487 33,000 -581 Level Washington Center
10:04AM 36.3678 -79.4075 55° Northeast 424 488 31,800 -1,323 Descending Washington Center
10:05AM 36.4464 -79.2658 55° Northeast 426 490 30,200 -1,415 Descending Washington Center
10:06AM 36.5114 -79.1489 55° Northeast 428 493 28,900 -1,355 Descending Washington Center
10:07AM 36.5850 -79.0167 55° Northeast 429 494 27,400 -1,403 Descending Washington Center
10:08AM 36.6522 -78.8950 55° Northeast 429 494 26,000 -1,161 Descending Washington Center
10:09AM 36.7214 -78.7689 56° Northeast 428 493 25,000 -480 Descending Washington Center
10:10AM 36.7881 -78.6500 55° Northeast 428 493 25,000  Level Washington Center
10:11AM 36.8667 -78.5053 56° Northeast 430 495 25,000  Level Washington Center
10:12AM 36.9308 -78.3889 55° Northeast 431 496 25,000  Level Washington Center
10:13AM 36.9972 -78.2653 56° Northeast 431 496 25,000  Level Washington Center
10:14AM 37.0653 -78.1444 55° Northeast 429 494 25,000 -194 Level Washington Center
10:15AM 37.1811 -78.0431 35° Northeast 429 494 24,600 -774 Descending Washington Center
10:17AM 37.2783 -77.9661 32° Northeast 419 482 23,400 -1,181 Descending Washington Center
10:18AM 37.3736 -77.8897 32° Northeast 411 473 22,100 -677 Descending Washington Center
10:19AM 37.4706 -77.8147 32° Northeast 411 473 22,000 -726 Descending Washington Center
10:20AM 37.5650 -77.7392 32° Northeast 406 467 20,600 -1,355 Descending Washington Center
10:21AM 37.6589 -77.6658 32° Northeast 400 460 19,200 -1,452 Descending Washington Center
10:22AM 37.7683 -77.5783 32° Northeast 392 451 17,600 -1,440 Descending Washington Center
10:23AM 37.8578 -77.5072 32° Northeast 385 443 16,200 -1,258 Descending Washington Center
10:24AM 37.9458 -77.4358 33° Northeast 382 440 15,000 -1,258 Descending Washington Center
10:25AM 38.0378 -77.3617 32° Northeast 367 422 13,600 -1,279 Descending Washington Center
10:26AM 38.1208 -77.2947 32° Northeast 359 413 12,400 -1,152 Descending Washington Center
10:27AM 38.2022 -77.2289 32° Northeast 352 405 11,200 -1,152 Descending Washington Center
10:28AM 38.2925 -77.1594 31° Northeast 346 398 10,000 -576 Descending Washington Center
10:29AM 38.3750 -77.1378 12° North 343 395 10,000  Level Washington Center
10:30AM 38.4850 -77.1156 North 338 389 10,000  Level Washington Center
10:31AM 38.5775 -77.0950 10° North 339 390 10,000 -293 Level Washington Center
10:32AM 38.6664 -77.0758 10° North 330 380 9,400 -1,220 Descending Washington Center
10:33AM 38.7494 -77.0622 North 309 356 7,500 -1,632 Descending Washington Center
10:34AM 38.8206 -77.1042 335° Northwest 288 331 6,000 -1,476 Descending Washington Center
10:35AM 38.8833 -77.2000 310° West 272 313 4,400 -1,742 Descending Potomac TRACON
10:36AM 38.9667 -77.2000 360° North 298 343 2,400 -1,190 Descending Potomac TRACON
10:37AM 38.9544 -77.1436 106° East 247 284 2,000 -480 Descending Washington Center
10:38AM 38.9161 -77.1061 143° Southeast 201 231 1,400 -567 Descending Washington Center
10:39AM 38.8986 -77.0644 118° Southeast 162 186 800 -606 Descending Washington Center
10:40AM 38.8667 -77.0333 143° Southeast 119 137 300 -652 Descending Potomac TRACON

Login

Don't have an account? Register now (free) for customized features, flight alerts, and more!